sensor_id;sensor_type;location;lat;lon;timestamp;temperature;humidity
38456;DHT22;24237;50.106;20.014;2022-12-07T16:53:00;6.50;99.90
38456;DHT22;24237;50.106;20.014;2022-12-07T16:55:36;6.40;99.90
38456;DHT22;24237;50.106;20.014;2022-12-07T16:58:28;6.20;99.90
38456;DHT22;24237;50.106;20.014;2022-12-07T17:00:53;6.10;99.90
38456;DHT22;24237;50.106;20.014;2022-12-07T17:03:19;6.20;99.90
38456;DHT22;24237;50.106;20.014;2022-12-07T17:05:46;6.20;99.90
38456;DHT22;24237;50.106;20.014;2022-12-07T17:08:13;6.20;99.90
38456;DHT22;24237;50.106;20.014;2022-12-07T17:10:41;6.40;99.90
38456;DHT22;24237;50.106;20.014;2022-12-07T17:13:07;6.40;99.90
38456;DHT22;24237;50.106;20.014;2022-12-07T17:16:15;6.40;99.90
38456;DHT22;24237;50.106;20.014;2022-12-07T17:18:40;6.10;99.90
38456;DHT22;24237;50.106;20.014;2022-12-07T17:21:26;6.10;99.90
38456;DHT22;24237;50.106;20.014;2022-12-07T17:23:52;6.30;99.90
38456;DHT22;24237;50.106;20.014;2022-12-07T17:26:22;6.20;99.90
38456;DHT22;24237;50.106;20.014;2022-12-07T17:28:48;5.90;99.90
38456;DHT22;24237;50.106;20.014;2022-12-07T17:32:51;6.00;99.90
38456;DHT22;24237;50.106;20.014;2022-12-07T17:35:17;5.90;99.90
38456;DHT22;24237;50.106;20.014;2022-12-07T17:37:42;5.80;99.90
38456;DHT22;24237;50.106;20.014;2022-12-07T17:40:08;5.90;99.90
38456;DHT22;24237;50.106;20.014;2022-12-07T17:42:34;5.80;99.90
38456;DHT22;24237;50.106;20.014;2022-12-07T17:45:01;6.10;99.90
38456;DHT22;24237;50.106;20.014;2022-12-07T17:47:27;6.10;99.90
38456;DHT22;24237;50.106;20.014;2022-12-07T17:49:53;6.10;99.90
38456;DHT22;24237;50.106;20.014;2022-12-07T17:52:18;6.00;99.90
38456;DHT22;24237;50.106;20.014;2022-12-07T17:55:03;6.00;99.90
38456;DHT22;24237;50.106;20.014;2022-12-07T17:57:29;5.90;99.90
38456;DHT22;24237;50.106;20.014;2022-12-07T17:59:54;5.90;99.90
38456;DHT22;24237;50.106;20.014;2022-12-07T18:02:20;5.90;99.90
38456;DHT22;24237;50.106;20.014;2022-12-07T18:04:45;5.80;99.90
38456;DHT22;24237;50.106;20.014;2022-12-07T18:07:12;5.80;99.90
38456;DHT22;24237;50.106;20.014;2022-12-07T18:09:38;5.90;99.90
38456;DHT22;24237;50.106;20.014;2022-12-07T18:12:07;5.70;99.90
38456;DHT22;24237;50.106;20.014;2022-12-07T18:14:34;5.80;99.90
38456;DHT22;24237;50.106;20.014;2022-12-07T18:16:59;5.50;99.90
38456;DHT22;24237;50.106;20.014;2022-12-07T18:19:45;5.80;99.90
38456;DHT22;24237;50.106;20.014;2022-12-07T18:22:11;5.90;99.90
38456;DHT22;24237;50.106;20.014;2022-12-07T18:24:36;5.70;99.90
38456;DHT22;24237;50.106;20.014;2022-12-07T18:27:05;5.60;99.90
38456;DHT22;24237;50.106;20.014;2022-12-07T18:29:31;5.60;99.90
38456;DHT22;24237;50.106;20.014;2022-12-07T18:31:57;5.60;99.90
38456;DHT22;24237;50.106;20.014;2022-12-07T18:34:22;5.80;99.90
38456;DHT22;24237;50.106;20.014;2022-12-07T18:36:48;5.80;99.90
38456;DHT22;24237;50.106;20.014;2022-12-07T18:39:18;5.70;99.90
38456;DHT22;24237;50.106;20.014;2022-12-07T18:41:44;5.80;99.90
38456;DHT22;24237;50.106;20.014;2022-12-07T18:44:10;5.90;99.90
38456;DHT22;24237;50.106;20.014;2022-12-07T18:46:37;6.10;99.90
38456;DHT22;24237;50.106;20.014;2022-12-07T18:49:05;5.90;99.90
38456;DHT22;24237;50.106;20.014;2022-12-07T18:51:30;6.10;99.90
38456;DHT22;24237;50.106;20.014;2022-12-07T18:53:57;6.30;99.90
38456;DHT22;24237;50.106;20.014;2022-12-07T18:56:24;6.20;99.90
38456;DHT22;24237;50.106;20.014;2022-12-07T18:58:51;6.30;99.90
38456;DHT22;24237;50.106;20.014;2022-12-07T19:01:36;6.20;99.90
38456;DHT22;24237;50.106;20.014;2022-12-07T19:04:02;6.00;99.90
38456;DHT22;24237;50.106;20.014;2022-12-07T19:06:28;6.00;99.90
38456;DHT22;24237;50.106;20.014;2022-12-07T19:08:54;6.10;99.90
38456;DHT22;24237;50.106;20.014;2022-12-07T19:11:31;6.20;99.90
38456;DHT22;24237;50.106;20.014;2022-12-07T19:14:27;6.30;99.90
38456;DHT22;24237;50.106;20.014;2022-12-07T19:16:55;6.40;99.90
38456;DHT22;24237;50.106;20.014;2022-12-07T19:19:27;6.20;99.90
38456;DHT22;24237;50.106;20.014;2022-12-07T19:21:53;6.30;99.90
38456;DHT22;24237;50.106;20.014;2022-12-07T19:24:19;6.50;99.90
38456;DHT22;24237;50.106;20.014;2022-12-07T19:26:45;6.50;99.90
38456;DHT22;24237;50.106;20.014;2022-12-07T19:29:11;6.50;99.90
38456;DHT22;24237;50.106;20.014;2022-12-07T19:31:37;6.40;99.90
38456;DHT22;24237;50.106;20.014;2022-12-07T19:34:13;6.60;99.90
38456;DHT22;24237;50.106;20.014;2022-12-07T19:36:43;6.60;99.90
38456;DHT22;24237;50.106;20.014;2022-12-07T19:39:09;6.50;99.90
38456;DHT22;24237;50.106;20.014;2022-12-07T19:41:34;6.60;99.90
38456;DHT22;24237;50.106;20.014;2022-12-07T19:44:02;6.70;99.90
38456;DHT22;24237;50.106;20.014;2022-12-07T19:46:28;6.50;99.90
38456;DHT22;24237;50.106;20.014;2022-12-07T19:49:26;6.40;99.90
38456;DHT22;24237;50.106;20.014;2022-12-07T19:51:55;6.50;99.90
38456;DHT22;24237;50.106;20.014;2022-12-07T19:54:24;6.40;99.90
38456;DHT22;24237;50.106;20.014;2022-12-07T19:56:51;6.50;99.90
38456;DHT22;24237;50.106;20.014;2022-12-07T19:59:19;6.50;99.90
38456;DHT22;24237;50.106;20.014;2022-12-07T20:01:45;6.40;99.90
38456;DHT22;24237;50.106;20.014;2022-12-07T20:04:13;6.60;99.90
38456;DHT22;24237;50.106;20.014;2022-12-07T20:06:41;6.70;99.90
38456;DHT22;24237;50.106;20.014;2022-12-07T20:09:07;6.70;99.90
38456;DHT22;24237;50.106;20.014;2022-12-07T20:11:33;6.60;99.90
38456;DHT22;24237;50.106;20.014;2022-12-07T20:14:18;6.60;99.90
38456;DHT22;24237;50.106;20.014;2022-12-07T20:16:44;6.70;99.90
38456;DHT22;24237;50.106;20.014;2022-12-07T20:19:11;6.60;99.90
38456;DHT22;24237;50.106;20.014;2022-12-07T20:21:41;6.60;99.90
38456;DHT22;24237;50.106;20.014;2022-12-07T20:24:10;6.60;99.90
38456;DHT22;24237;50.106;20.014;2022-12-07T20:26:38;6.60;99.90
38456;DHT22;24237;50.106;20.014;2022-12-07T20:29:08;6.50;99.90
38456;DHT22;24237;50.106;20.014;2022-12-07T20:31:34;6.80;99.90
38456;DHT22;24237;50.106;20.014;2022-12-07T20:34:00;6.70;99.90
38456;DHT22;24237;50.106;20.014;2022-12-07T20:36:27;6.80;99.90
38456;DHT22;24237;50.106;20.014;2022-12-07T20:38:53;6.80;99.90
38456;DHT22;24237;50.106;20.014;2022-12-07T20:41:19;6.70;99.90
38456;DHT22;24237;50.106;20.014;2022-12-07T20:44:03;6.80;99.90
38456;DHT22;24237;50.106;20.014;2022-12-07T20:46:30;6.90;99.90
38456;DHT22;24237;50.106;20.014;2022-12-07T20:48:57;6.60;99.90
38456;DHT22;24237;50.106;20.014;2022-12-07T20:51:28;6.80;99.90
38456;DHT22;24237;50.106;20.014;2022-12-07T20:53:54;6.80;99.90
38456;DHT22;24237;50.106;20.014;2022-12-07T20:56:30;6.80;99.90
38456;DHT22;24237;50.106;20.014;2022-12-07T20:58:58;6.90;99.90
38456;DHT22;24237;50.106;20.014;2022-12-07T21:01:24;6.70;99.90
38456;DHT22;24237;50.106;20.014;2022-12-07T21:04:00;6.50;99.90
38456;DHT22;24237;50.106;20.014;2022-12-07T21:06:27;6.40;99.90
38456;DHT22;24237;50.106;20.014;2022-12-07T21:08:56;6.50;99.90
38456;DHT22;24237;50.106;20.014;2022-12-07T21:11:23;6.60;99.90
38456;DHT22;24237;50.106;20.014;2022-12-07T21:13:49;6.80;99.90
38456;DHT22;24237;50.106;20.014;2022-12-07T21:16:21;6.70;99.90
38456;DHT22;24237;50.106;20.014;2022-12-07T21:18:47;6.50;99.90
38456;DHT22;24237;50.106;20.014;2022-12-07T21:21:18;6.50;99.90
38456;DHT22;24237;50.106;20.014;2022-12-07T21:23:48;6.60;99.90
38456;DHT22;24237;50.106;20.014;2022-12-07T21:26:18;6.60;99.90
38456;DHT22;24237;50.106;20.014;2022-12-07T21:28:44;6.60;99.90
38456;DHT22;24237;50.106;20.014;2022-12-07T21:31:10;6.50;99.90
38456;DHT22;24237;50.106;20.014;2022-12-07T21:33:36;6.70;99.90
38456;DHT22;24237;50.106;20.014;2022-12-07T21:36:04;6.60;99.90
38456;DHT22;24237;50.106;20.014;2022-12-07T21:38:30;6.70;99.90
38456;DHT22;24237;50.106;20.014;2022-12-07T21:40:56;6.70;99.90
38456;DHT22;24237;50.106;20.014;2022-12-07T21:43:22;6.60;99.90
38456;DHT22;24237;50.106;20.014;2022-12-07T21:45:52;6.60;99.90
38456;DHT22;24237;50.106;20.014;2022-12-07T21:48:18;6.70;99.90
38456;DHT22;24237;50.106;20.014;2022-12-07T21:50:44;6.60;99.90
38456;DHT22;24237;50.106;20.014;2022-12-07T21:53:09;6.50;99.90
38456;DHT22;24237;50.106;20.014;2022-12-07T21:55:42;6.70;99.90
38456;DHT22;24237;50.106;20.014;2022-12-07T21:58:08;6.90;99.90
38456;DHT22;24237;50.106;20.014;2022-12-07T22:00:34;6.80;99.90
38456;DHT22;24237;50.106;20.014;2022-12-07T22:03:00;7.10;99.90
38456;DHT22;24237;50.106;20.014;2022-12-07T22:05:25;7.00;99.90
38456;DHT22;24237;50.106;20.014;2022-12-07T22:07:51;6.80;99.90
38456;DHT22;24237;50.106;20.014;2022-12-07T22:10:16;6.90;99.90
38456;DHT22;24237;50.106;20.014;2022-12-07T22:12:53;6.70;99.90
38456;DHT22;24237;50.106;20.014;2022-12-07T22:15:19;6.80;99.90
38456;DHT22;24237;50.106;20.014;2022-12-07T22:17:45;7.00;99.90
38456;DHT22;24237;50.106;20.014;2022-12-07T22:20:11;7.00;99.90
38456;DHT22;24237;50.106;20.014;2022-12-07T22:22:36;7.10;99.90
38456;DHT22;24237;50.106;20.014;2022-12-07T22:25:02;7.20;99.90
38456;DHT22;24237;50.106;20.014;2022-12-07T22:27:27;7.00;99.90
38456;DHT22;24237;50.106;20.014;2022-12-07T22:29:53;7.00;99.90
38456;DHT22;24237;50.106;20.014;2022-12-07T22:32:19;6.90;99.90
38456;DHT22;24237;50.106;20.014;2022-12-07T22:34:44;6.70;99.90
38456;DHT22;24237;50.106;20.014;2022-12-07T22:37:10;6.70;99.90
38456;DHT22;24237;50.106;20.014;2022-12-07T22:39:36;6.70;99.90
38456;DHT22;24237;50.106;20.014;2022-12-07T22:42:01;6.70;99.90
38456;DHT22;24237;50.106;20.014;2022-12-07T22:44:27;6.90;99.90
38456;DHT22;24237;50.106;20.014;2022-12-07T22:46:52;6.70;99.90
38456;DHT22;24237;50.106;20.014;2022-12-07T22:49:18;6.60;99.90
38456;DHT22;24237;50.106;20.014;2022-12-07T22:51:44;6.70;99.90
38456;DHT22;24237;50.106;20.014;2022-12-07T22:54:14;6.80;99.90
38456;DHT22;24237;50.106;20.014;2022-12-07T22:56:41;6.80;99.90
38456;DHT22;24237;50.106;20.014;2022-12-07T22:59:07;6.70;99.90
38456;DHT22;24237;50.106;20.014;2022-12-07T23:01:34;6.70;99.90
38456;DHT22;24237;50.106;20.014;2022-12-07T23:04:00;6.70;99.90
38456;DHT22;24237;50.106;20.014;2022-12-07T23:06:30;6.50;99.90
38456;DHT22;24237;50.106;20.014;2022-12-07T23:08:58;6.50;99.90
38456;DHT22;24237;50.106;20.014;2022-12-07T23:11:28;6.60;99.90
38456;DHT22;24237;50.106;20.014;2022-12-07T23:14:14;6.70;99.90
38456;DHT22;24237;50.106;20.014;2022-12-07T23:16:40;6.80;99.90
38456;DHT22;24237;50.106;20.014;2022-12-07T23:19:07;6.90;99.90
38456;DHT22;24237;50.106;20.014;2022-12-07T23:21:32;6.80;99.90
38456;DHT22;24237;50.106;20.014;2022-12-07T23:23:58;6.90;99.90
38456;DHT22;24237;50.106;20.014;2022-12-07T23:26:24;7.00;99.90
38456;DHT22;24237;50.106;20.014;2022-12-07T23:28:50;7.10;99.90
38456;DHT22;24237;50.106;20.014;2022-12-07T23:31:17;7.00;99.90
38456;DHT22;24237;50.106;20.014;2022-12-07T23:33:43;6.90;99.90
38456;DHT22;24237;50.106;20.014;2022-12-07T23:36:17;6.70;99.90
38456;DHT22;24237;50.106;20.014;2022-12-07T23:38:45;6.70;99.90
38456;DHT22;24237;50.106;20.014;2022-12-07T23:41:12;7.00;99.90
38456;DHT22;24237;50.106;20.014;2022-12-07T23:43:39;6.80;99.90
38456;DHT22;24237;50.106;20.014;2022-12-07T23:46:20;6.90;99.90
38456;DHT22;24237;50.106;20.014;2022-12-07T23:48:47;6.90;99.90
38456;DHT22;24237;50.106;20.014;2022-12-07T23:51:13;7.10;99.90
38456;DHT22;24237;50.106;20.014;2022-12-07T23:53:41;7.10;99.90
38456;DHT22;24237;50.106;20.014;2022-12-07T23:56:11;7.00;99.90
38456;DHT22;24237;50.106;20.014;2022-12-07T23:58:37;7.10;99.90
